Reed Point, Montana
Current Conditions -  °F | °C
As of 9:53 PM on Wednesday 22 Oct 2014 (Local Time) from KLVM Reporting Station
Clear Clear  
Wind Chill: 51°   Ceiling: Unl
Heat Index: 51°   Visibility: 10mi
Dew Point: 23°   Wind: 24mph
Humidity: 33%   Direction: 230°SW
Pressure: 30"   Gusts: 37mph
Location:  45.71°N, 109.54°W
Report Text: KLVM 230353Z AUTO 23021G32KT 10SM CLR 11/M05 A3000 RMK AO2 PK WND 21036/0343 SLP147 T01061050
Loading
Personal Weather Stations






























Interactive Weather Map
Tropical Storm Tracking
New forecast layout! Learn more

10-Day Weather Forecast

Advertisements
Track Severe Weather on mobile